Terminal Aerodrome Forecast
Issued by NWS Topeka, KS

Home | Current Version | Previous Version | Graphics & Text | Print | Product List | Glossary On
Versions: 1 2 3 4 5 6 7 8 9 10 11 12 13 14 15 16 17 18 19 20 21 22 23 24
616
FTUS43 KTOP 231636 AAB
TAFTOP
TAF AMD
KTOP 231636Z 2317/2412 02003KT P6SM BKN020
     FM240100 05005KT P6SM BKN015
     FM240400 06006KT P6SM BKN008
     FM240600 05006KT 3SM -FZDZ OVC004=

USA.gov is the U.S. government's official web portal to all federal, state and local government web resources and services.